sensor_id;sensor_type;location;lat;lon;timestamp;P1;durP1;ratioP1;P2;durP2;ratioP2
18973;SDS011;9621;48.690;9.466;2023-02-01T00:02:37;5.33;;;3.27;;
18973;SDS011;9621;48.690;9.466;2023-02-01T00:05:06;4.27;;;2.90;;
18973;SDS011;9621;48.690;9.466;2023-02-01T00:07:36;4.80;;;3.23;;
18973;SDS011;9621;48.690;9.466;2023-02-01T00:10:05;6.03;;;3.90;;
18973;SDS011;9621;48.690;9.466;2023-02-01T00:12:33;4.87;;;3.40;;
18973;SDS011;9621;48.690;9.466;2023-02-01T00:15:02;5.97;;;3.30;;
18973;SDS011;9621;48.690;9.466;2023-02-01T00:17:30;6.27;;;3.27;;
18973;SDS011;9621;48.690;9.466;2023-02-01T00:19:56;5.30;;;3.10;;
18973;SDS011;9621;48.690;9.466;2023-02-01T00:22:24;5.20;;;2.97;;
18973;SDS011;9621;48.690;9.466;2023-02-01T00:24:51;7.57;;;3.43;;
18973;SDS011;9621;48.690;9.466;2023-02-01T00:27:20;4.60;;;3.00;;
18973;SDS011;9621;48.690;9.466;2023-02-01T00:29:48;4.87;;;3.10;;
18973;SDS011;9621;48.690;9.466;2023-02-01T00:32:16;5.27;;;3.20;;
18973;SDS011;9621;48.690;9.466;2023-02-01T00:34:43;10.80;;;3.70;;
18973;SDS011;9621;48.690;9.466;2023-02-01T00:37:12;6.27;;;3.30;;
18973;SDS011;9621;48.690;9.466;2023-02-01T00:39:39;3.80;;;2.77;;
18973;SDS011;9621;48.690;9.466;2023-02-01T00:42:06;4.33;;;3.17;;
18973;SDS011;9621;48.690;9.466;2023-02-01T00:44:34;6.00;;;3.40;;
18973;SDS011;9621;48.690;9.466;2023-02-01T00:47:02;4.90;;;3.13;;
18973;SDS011;9621;48.690;9.466;2023-02-01T00:49:33;3.83;;;3.00;;
18973;SDS011;9621;48.690;9.466;2023-02-01T00:52:00;6.00;;;3.17;;
18973;SDS011;9621;48.690;9.466;2023-02-01T00:54:27;6.07;;;3.27;;
18973;SDS011;9621;48.690;9.466;2023-02-01T00:56:54;4.83;;;3.10;;
18973;SDS011;9621;48.690;9.466;2023-02-01T00:59:22;3.30;;;2.53;;
18973;SDS011;9621;48.690;9.466;2023-02-01T01:01:49;3.77;;;2.83;;
18973;SDS011;9621;48.690;9.466;2023-02-01T01:04:17;5.23;;;3.17;;
18973;SDS011;9621;48.690;9.466;2023-02-01T01:06:46;3.80;;;2.83;;
18973;SDS011;9621;48.690;9.466;2023-02-01T01:09:24;4.13;;;2.90;;
18973;SDS011;9621;48.690;9.466;2023-02-01T01:11:51;4.40;;;3.17;;
18973;SDS011;9621;48.690;9.466;2023-02-01T01:14:18;5.27;;;2.67;;
18973;SDS011;9621;48.690;9.466;2023-02-01T01:16:45;4.33;;;2.60;;
18973;SDS011;9621;48.690;9.466;2023-02-01T01:19:12;3.90;;;2.40;;
18973;SDS011;9621;48.690;9.466;2023-02-01T01:21:39;4.70;;;2.83;;
18973;SDS011;9621;48.690;9.466;2023-02-01T01:24:09;3.67;;;2.87;;
18973;SDS011;9621;48.690;9.466;2023-02-01T01:26:36;4.67;;;2.83;;
18973;SDS011;9621;48.690;9.466;2023-02-01T01:29:04;3.33;;;2.63;;
18973;SDS011;9621;48.690;9.466;2023-02-01T01:31:31;3.43;;;2.60;;
18973;SDS011;9621;48.690;9.466;2023-02-01T01:33:59;4.87;;;2.80;;
18973;SDS011;9621;48.690;9.466;2023-02-01T01:36:26;3.67;;;2.70;;
18973;SDS011;9621;48.690;9.466;2023-02-01T01:38:56;3.83;;;2.77;;
18973;SDS011;9621;48.690;9.466;2023-02-01T01:41:26;4.53;;;2.80;;
18973;SDS011;9621;48.690;9.466;2023-02-01T01:43:57;3.47;;;2.70;;
18973;SDS011;9621;48.690;9.466;2023-02-01T01:46:29;3.43;;;2.27;;
18973;SDS011;9621;48.690;9.466;2023-02-01T01:49:04;4.07;;;2.50;;
18973;SDS011;9621;48.690;9.466;2023-02-01T01:51:37;3.53;;;2.80;;
18973;SDS011;9621;48.690;9.466;2023-02-01T01:54:11;4.23;;;2.53;;
18973;SDS011;9621;48.690;9.466;2023-02-01T01:56:43;2.77;;;2.20;;
18973;SDS011;9621;48.690;9.466;2023-02-01T01:59:16;3.70;;;2.43;;
18973;SDS011;9621;48.690;9.466;2023-02-01T02:01:43;3.97;;;2.40;;
18973;SDS011;9621;48.690;9.466;2023-02-01T02:04:11;3.40;;;2.63;;
18973;SDS011;9621;48.690;9.466;2023-02-01T02:06:40;3.63;;;2.43;;
18973;SDS011;9621;48.690;9.466;2023-02-01T02:09:13;2.47;;;2.27;;
18973;SDS011;9621;48.690;9.466;2023-02-01T02:11:41;3.90;;;2.20;;
18973;SDS011;9621;48.690;9.466;2023-02-01T02:14:11;3.47;;;2.63;;
18973;SDS011;9621;48.690;9.466;2023-02-01T02:16:52;2.77;;;2.20;;
18973;SDS011;9621;48.690;9.466;2023-02-01T02:22:38;2.27;;;1.80;;
18973;SDS011;9621;48.690;9.466;2023-02-01T02:28:56;2.43;;;2.23;;
18973;SDS011;9621;48.690;9.466;2023-02-01T02:35:21;2.63;;;1.90;;
18973;SDS011;9621;48.690;9.466;2023-02-01T02:37:59;2.70;;;1.87;;
18973;SDS011;9621;48.690;9.466;2023-02-01T02:40:37;2.77;;;1.87;;
18973;SDS011;9621;48.690;9.466;2023-02-01T02:43:12;3.10;;;1.83;;
18973;SDS011;9621;48.690;9.466;2023-02-01T02:46:04;1.93;;;1.73;;
18973;SDS011;9621;48.690;9.466;2023-02-01T02:48:59;1.87;;;1.67;;
18973;SDS011;9621;48.690;9.466;2023-02-01T02:51:32;2.10;;;1.70;;
18973;SDS011;9621;48.690;9.466;2023-02-01T02:54:22;2.10;;;1.80;;
18973;SDS011;9621;48.690;9.466;2023-02-01T02:57:10;2.07;;;1.60;;
18973;SDS011;9621;48.690;9.466;2023-02-01T03:00:04;1.83;;;1.60;;
18973;SDS011;9621;48.690;9.466;2023-02-01T03:02:53;2.60;;;1.37;;
18973;SDS011;9621;48.690;9.466;2023-02-01T03:05:40;1.73;;;1.63;;
18973;SDS011;9621;48.690;9.466;2023-02-01T03:08:12;2.03;;;1.60;;
18973;SDS011;9621;48.690;9.466;2023-02-01T03:10:42;2.70;;;2.03;;
